Time;durP1;ratioP1;P1;durP2;ratioP2;P2;SDS_P1;SDS_P2;PMS_P1;PMS_P2;Temp;Humidity;BMP_temperature;BMP_pressure;BME280_temperature;BME280_humidity;BME280_pressure;Samples;Min_cycle;Max_cycle;Signal;HPM_P1;HPM_P2
2021/06/04 00:00:45;;;;;;;15.77;10.88;;;18.70;89.30;;;;;;2071055;28;20109;-85
2021/06/04 00:01:46;;;;;;;14.02;11.07;;;18.70;89.30;;;;;;2062292;28;20097;-84
2021/06/04 00:02:48;;;;;;;13.05;10.80;;;18.70;89.30;;;;;;2058311;28;20058;-84
2021/06/04 00:03:50;;;;;;;12.68;10.88;;;18.70;89.40;;;;;;2061964;28;20501;-84
2021/06/04 00:04:51;;;;;;;13.00;11.13;;;18.70;89.40;;;;;;2077115;28;20057;-84
2021/06/04 00:05:54;;;;;;;11.68;10.38;;;18.70;89.40;;;;;;2073263;28;20034;-84
2021/06/04 00:06:55;;;;;;;12.90;11.05;;;18.70;89.50;;;;;;2073603;28;20021;-84
2021/06/04 00:07:55;;;;;;;13.50;10.82;;;18.60;89.40;;;;;;2080600;28;20033;-84
2021/06/04 00:08:56;;;;;;;13.05;11.25;;;18.60;89.40;;;;;;2072718;28;20128;-84
2021/06/04 00:09:57;;;;;;;13.65;11.73;;;18.60;89.50;;;;;;2063526;28;20066;-84
2021/06/04 00:11:40;;;;;;;12.73;10.73;;;18.60;89.60;;;;;;2061194;28;20125;-84
2021/06/04 00:12:41;;;;;;;11.93;10.13;;;18.70;89.60;;;;;;2071659;28;20534;-84
2021/06/04 00:13:49;;;;;;;12.23;10.00;;;18.70;89.60;;;;;;2072876;28;20034;-84
2021/06/04 00:14:50;;;;;;;12.73;10.57;;;18.70;89.60;;;;;;2079857;28;20045;-84
2021/06/04 00:15:58;;;;;;;12.73;10.68;;;18.70;89.60;;;;;;2074994;28;20080;-84
2021/06/04 00:17:15;;;;;;;11.52;10.32;;;18.70;89.60;;;;;;2075950;28;20041;-84
2021/06/04 00:18:16;;;;;;;12.77;10.50;;;18.70;89.60;;;;;;2086488;28;20418;-84
2021/06/04 00:19:20;;;;;;;12.30;10.25;;;18.70;89.50;;;;;;2073337;28;20029;-84
2021/06/04 00:20:27;;;;;;;11.55;10.18;;;18.80;89.60;;;;;;2077882;28;20064;-84
2021/06/04 00:21:33;;;;;;;13.15;10.75;;;18.80;89.60;;;;;;2072218;28;20037;-84
2021/06/04 00:22:33;;;;;;;12.80;10.77;;;18.80;89.60;;;;;;2073399;28;20072;-83
2021/06/04 00:23:35;;;;;;;11.38;10.18;;;18.70;89.60;;;;;;2070400;28;20038;-84
2021/06/04 00:24:39;;;;;;;12.48;11.10;;;18.80;89.70;;;;;;2062483;28;20035;-84
2021/06/04 00:25:39;;;;;;;12.77;10.40;;;18.80;89.70;;;;;;2072268;28;20439;-83
2021/06/04 00:26:43;;;;;;;12.23;10.70;;;18.70;89.60;;;;;;2067912;28;20034;-84
2021/06/04 00:27:44;;;;;;;12.43;10.65;;;18.80;89.80;;;;;;2079873;28;20049;-84
2021/06/04 00:28:45;;;;;;;12.32;10.48;;;18.70;89.70;;;;;;2081360;28;20107;-84
2021/06/04 00:29:46;;;;;;;12.50;10.65;;;18.80;89.80;;;;;;2073092;28;20026;-83
2021/06/04 00:30:47;;;;;;;12.05;10.50;;;18.70;89.80;;;;;;2066855;28;20033;-85
2021/06/04 00:31:50;;;;;;;12.85;10.45;;;18.70;89.80;;;;;;2076482;28;20029;-83
2021/06/04 00:32:51;;;;;;;13.10;10.40;;;18.70;89.80;;;;;;2087042;28;20115;-84
2021/06/04 00:33:52;;;;;;;12.55;11.20;;;18.80;89.80;;;;;;2078331;28;20045;-84
2021/06/04 00:34:53;;;;;;;14.40;11.55;;;18.80;89.80;;;;;;2079983;28;20059;-84
2021/06/04 00:35:54;;;;;;;14.25;11.95;;;18.80;89.80;;;;;;2079328;28;20240;-84
2021/06/04 00:36:55;;;;;;;14.65;11.82;;;18.80;89.80;;;;;;2080552;28;20048;-84
2021/06/04 00:37:56;;;;;;;13.90;11.88;;;18.80;89.80;;;;;;2085022;28;20043;-84
2021/06/04 00:38:57;;;;;;;12.85;11.25;;;18.80;89.80;;;;;;2067379;28;20121;-84
2021/06/04 00:39:58;;;;;;;14.27;12.27;;;18.80;89.70;;;;;;2061813;28;20047;-84
2021/06/04 00:41:05;;;;;;;14.77;11.85;;;18.80;89.70;;;;;;2064430;28;20034;-84
2021/06/04 00:42:16;;;;;;;13.35;11.65;;;18.80;89.70;;;;;;2073867;28;20040;-82
2021/06/04 00:43:18;;;;;;;13.77;11.65;;;18.80;89.70;;;;;;2086803;28;20037;-84
2021/06/04 00:44:19;;;;;;;13.18;11.45;;;18.80;89.70;;;;;;2082355;28;20083;-84
2021/06/04 00:45:25;;;;;;;14.60;11.95;;;18.80;89.70;;;;;;2074657;28;20050;-84
2021/06/04 00:46:28;;;;;;;12.80;11.40;;;18.80;89.70;;;;;;2086256;28;19998;-84
2021/06/04 00:47:28;;;;;;;16.15;12.82;;;18.80;89.70;;;;;;2086213;28;20097;-84
2021/06/04 00:48:29;;;;;;;14.93;11.98;;;18.80;89.70;;;;;;2071655;28;20030;-85
2021/06/04 00:49:30;;;;;;;14.88;12.75;;;18.80;89.70;;;;;;2071824;28;20025;-85
2021/06/04 00:50:39;;;;;;;14.23;11.60;;;18.80;89.70;;;;;;2072291;28;20038;-84
2021/06/04 00:51:51;;;;;;;14.38;12.07;;;18.80;89.70;;;;;;2074447;28;20026;-84
2021/06/04 00:52:52;;;;;;;14.60;11.50;;;18.80;89.70;;;;;;2083193;28;20551;-84
2021/06/04 00:53:54;;;;;;;13.70;11.70;;;18.80;89.70;;;;;;2082571;28;20033;-84
2021/06/04 00:54:57;;;;;;;12.98;11.45;;;18.80;89.70;;;;;;2081912;28;20034;-84
2021/06/04 00:55:58;;;;;;;14.13;12.02;;;18.80;89.70;;;;;;2074821;28;20026;-84
2021/06/04 00:57:00;;;;;;;14.32;11.85;;;18.80;89.70;;;;;;2082554;28;20025;-84
2021/06/04 00:58:02;;;;;;;14.20;11.88;;;18.80;90.10;;;;;;2078898;28;20033;-83
2021/06/04 00:59:05;;;;;;;14.75;12.13;;;18.80;89.70;;;;;;2067542;28;20397;-84
2021/06/04 01:00:12;;;;;;;15.52;12.68;;;18.80;89.70;;;;;;2076866;28;20088;-84
2021/06/04 01:01:15;;;;;;;15.65;12.13;;;18.80;89.70;;;;;;2078917;28;20380;-84
2021/06/04 01:02:22;;;;;;;14.43;12.07;;;18.80;89.50;;;;;;2078178;28;20025;-84
2021/06/04 01:03:26;;;;;;;15.23;12.98;;;18.80;89.50;;;;;;2079390;28;20031;-84
2021/06/04 01:04:28;;;;;;;15.18;11.93;;;18.80;89.50;;;;;;2073236;28;20113;-84
2021/06/04 01:05:31;;;;;;;14.90;12.38;;;18.80;89.50;;;;;;2079412;28;20036;-84
2021/06/04 01:06:43;;;;;;;14.20;12.43;;;18.80;89.50;;;;;;2079925;28;20026;-84
2021/06/04 01:08:08;;;;;;;14.80;11.85;;;18.80;89.40;;;;;;2077045;28;20396;-84
2021/06/04 01:09:24;;;;;;;13.80;11.55;;;18.80;89.30;;;;;;2079647;28;20075;-83
2021/06/04 01:11:01;;;;;;;14.18;11.57;;;18.80;89.40;;;;;;2081028;28;20029;-83
2021/06/04 01:12:33;;;;;;;13.90;11.18;;;18.80;89.30;;;;;;2083957;28;20029;-85
2021/06/04 01:14:12;;;;;;;12.20;10.50;;;18.80;89.30;;;;;;2090235;28;20128;-84
2021/06/04 01:15:24;;;;;;;13.93;11.45;;;18.80;89.30;;;;;;2065059;28;20043;-84
2021/06/04 01:17:04;;;;;;;14.32;11.98;;;18.80;89.30;;;;;;2065358;28;20041;-84
2021/06/04 01:18:41;;;;;;;13.98;11.43;;;18.70;89.30;;;;;;2056231;28;20058;-83
2021/06/04 01:20:09;;;;;;;14.40;11.38;;;18.70;89.20;;;;;;2056668;28;20035;-84
2021/06/04 01:21:31;;;;;;;13.98;11.32;;;18.70;89.20;;;;;;2075571;28;20034;-83
2021/06/04 01:22:51;;;;;;;14.25;11.27;;;18.70;89.70;;;;;;2076763;28;20025;-84
2021/06/04 01:24:03;;;;;;;16.55;12.23;;;18.70;89.10;;;;;;2078050;28;20052;-84
2021/06/04 01:25:23;;;;;;;14.75;12.05;;;18.70;89.10;;;;;;2080166;28;20025;-84
2021/06/04 01:26:27;;;;;;;15.02;12.35;;;18.70;89.10;;;;;;2073326;28;20109;-83
2021/06/04 01:27:37;;;;;;;16.50;12.13;;;18.70;89.10;;;;;;2070477;28;20172;-84
2021/06/04 01:28:45;;;;;;;15.10;12.35;;;18.70;89.20;;;;;;2067666;28;20125;-83
2021/06/04 01:29:53;;;;;;;15.40;12.68;;;18.70;89.10;;;;;;2076042;28;20479;-83
2021/06/04 01:31:07;;;;;;;17.33;13.75;;;18.70;89.10;;;;;;2083229;28;20052;-84
2021/06/04 01:32:29;;;;;;;15.82;13.35;;;18.70;89.20;;;;;;2078928;28;20029;-83
2021/06/04 01:33:43;;;;;;;17.75;13.55;;;18.70;89.10;;;;;;2078896;28;20103;-84
2021/06/04 01:34:49;;;;;;;16.60;13.65;;;18.70;89.80;;;;;;2076562;28;20029;-84
2021/06/04 01:36:01;;;;;;;16.75;13.27;;;18.60;89.10;;;;;;2077065;28;20021;-83
2021/06/04 01:37:11;;;;;;;16.85;13.43;;;18.70;89.20;;;;;;2074975;28;20018;-84
2021/06/04 01:38:14;;;;;;;;;;;18.70;89.20;;;;;;2080533;28;20116;-83
2021/06/04 01:39:24;;;;;;;18.25;12.70;;;18.60;89.10;;;;;;2080276;28;19908;-84
2021/06/04 01:40:32;;;;;;;17.38;13.23;;;18.60;89.00;;;;;;2080882;28;20024;-84
2021/06/04 01:41:34;;;;;;;15.95;12.88;;;18.60;89.10;;;;;;2074465;28;20030;-84
2021/06/04 01:42:39;;;;;;;17.70;13.68;;;18.60;89.20;;;;;;2067586;28;20026;-84
2021/06/04 01:43:54;;;;;;;17.55;13.38;;;18.60;89.20;;;;;;2070436;28;20019;-83
2021/06/04 01:45:26;;;;;;;17.45;13.82;;;18.60;89.20;;;;;;2071352;28;20423;-83
2021/06/04 01:46:35;;;;;;;17.25;13.32;;;18.60;89.30;;;;;;2072571;28;20048;-83
2021/06/04 01:47:44;;;;;;;17.65;13.07;;;18.60;89.30;;;;;;2072685;28;20030;-83
2021/06/04 01:48:49;;;;;;;17.27;14.00;;;18.60;89.30;;;;;;2077347;28;20400;-84
2021/06/04 01:49:53;;;;;;;18.08;13.63;;;18.60;89.30;;;;;;2076998;28;20061;-83
2021/06/04 01:50:59;;;;;;;19.38;14.20;;;18.50;89.20;;;;;;2079609;28;20029;-83
2021/06/04 01:52:08;;;;;;;18.45;13.75;;;18.60;89.30;;;;;;2085103;28;20024;-84
2021/06/04 01:53:20;;;;;;;18.65;14.52;;;18.50;89.30;;;;;;2074649;28;20053;-84
2021/06/04 01:54:52;;;;;;;18.60;14.43;;;18.50;89.30;;;;;;2074517;28;20026;-83
2021/06/04 01:56:03;;;;;;;19.02;14.18;;;18.50;89.30;;;;;;2072298;28;20124;-84
2021/06/04 01:57:10;;;;;;;19.15;14.20;;;18.50;89.30;;;;;;2082282;28;20026;-83
2021/06/04 01:58:24;;;;;;;19.60;14.48;;;18.50;89.30;;;;;;2083100;28;20029;-83
2021/06/04 01:59:31;;;;;;;19.83;14.77;;;18.50;89.30;;;;;;2076357;28;20052;-84
2021/06/04 02:00:40;;;;;;;18.60;14.52;;;18.50;89.40;;;;;;2076183;28;20048;-84
2021/06/04 02:01:46;;;;;;;20.98;15.10;;;18.40;89.40;;;;;;2076716;28;20032;-84
2021/06/04 02:02:47;;;;;;;20.95;15.95;;;18.40;89.40;;;;;;2077068;28;20025;-84
2021/06/04 02:03:48;;;;;;;19.35;14.95;;;18.40;89.40;;;;;;2078879;28;20049;-84
2021/06/04 02:04:53;;;;;;;20.65;15.60;;;18.40;89.50;;;;;;2070998;28;20057;-83
2021/06/04 02:05:56;;;;;;;20.67;16.10;;;18.40;89.50;;;;;;2063994;28;20507;-84
2021/06/04 02:06:56;;;;;;;20.10;15.88;;;18.40;89.50;;;;;;2072388;28;20550;-84
2021/06/04 02:07:59;;;;;;;20.58;15.68;;;18.40;89.50;;;;;;2071950;28;20088;-83
2021/06/04 02:09:00;;;;;;;23.23;17.33;;;18.40;89.40;;;;;;2069678;28;20512;-83
2021/06/04 02:10:05;;;;;;;22.40;16.58;;;18.40;89.40;;;;;;2074357;28;20034;-83
2021/06/04 02:11:08;;;;;;;21.45;16.50;;;18.40;89.40;;;;;;2067685;28;20022;-83
2021/06/04 02:12:10;;;;;;;22.95;16.35;;;18.30;89.30;;;;;;2070064;28;20407;-83
2021/06/04 02:13:12;;;;;;;22.80;17.08;;;18.30;89.30;;;;;;2078186;28;20025;-83
2021/06/04 02:14:19;;;;;;;23.70;17.27;;;18.40;90.00;;;;;;2071376;28;20499;-84
2021/06/04 02:15:25;;;;;;;23.13;17.05;;;18.40;89.40;;;;;;2072774;28;20098;-83
2021/06/04 02:16:41;;;;;;;23.88;17.02;;;18.30;89.40;;;;;;2076736;28;20076;-84
2021/06/04 02:17:52;;;;;;;22.35;17.10;;;18.40;89.40;;;;;;2075860;28;20026;-83
2021/06/04 02:19:17;;;;;;;22.90;17.02;;;18.30;89.40;;;;;;2077229;28;20033;-83
2021/06/04 02:20:29;;;;;;;21.73;16.60;;;18.30;89.50;;;;;;2075631;28;20038;-83
2021/06/04 02:21:38;;;;;;;22.83;16.88;;;18.20;89.40;;;;;;2077635;28;20025;-83
2021/06/04 02:23:16;;;;;;;22.52;17.10;;;18.20;89.40;;;;;;2079594;28;20454;-83
2021/06/04 02:24:37;;;;;;;21.45;16.55;;;18.20;89.40;;;;;;2072326;28;20022;-83
2021/06/04 02:26:01;;;;;;;22.67;17.20;;;18.20;89.40;;;;;;2072077;28;20061;-83
2021/06/04 02:27:12;;;;;;;23.15;17.25;;;18.20;89.50;;;;;;2078642;28;20373;-83
2021/06/04 02:28:42;;;;;;;25.65;18.73;;;18.10;89.40;;;;;;2077129;28;20033;-83
2021/06/04 02:30:05;;;;;;;23.20;17.67;;;18.10;89.50;;;;;;2083676;28;20445;-83
2021/06/04 02:31:20;;;;;;;21.70;16.58;;;18.10;89.40;;;;;;2052864;28;20090;-83
2021/06/04 02:32:28;;;;;;;22.23;16.45;;;18.10;89.40;;;;;;2071605;28;20026;-83
2021/06/04 02:33:43;;;;;;;22.35;16.38;;;18.10;89.40;;;;;;2077695;28;20037;-83
2021/06/04 02:34:50;;;;;;;22.85;16.35;;;18.10;89.40;;;;;;2075850;28;20477;-83
2021/06/04 02:36:06;;;;;;;23.48;17.23;;;18.10;89.50;;;;;;2076207;28;20442;-83
2021/06/04 02:37:10;;;;;;;21.77;16.25;;;18.10;89.50;;;;;;2070625;28;20068;-83
2021/06/04 02:38:16;;;;;;;21.67;16.80;;;18.10;89.50;;;;;;2071775;28;20037;-83
2021/06/04 02:39:25;;;;;;;22.88;17.42;;;18.10;89.50;;;;;;2074235;28;20455;-83
2021/06/04 02:40:31;;;;;;;22.95;17.90;;;18.10;89.60;;;;;;2082444;28;20541;-83
2021/06/04 02:41:38;;;;;;;21.63;16.88;;;18.10;89.60;;;;;;2077079;28;20391;-83
2021/06/04 02:43:07;;;;;;;21.67;16.55;;;18.10;89.70;;;;;;2079836;28;20029;-83
2021/06/04 02:44:13;;;;;;;23.67;16.73;;;18.10;89.60;;;;;;2066077;28;20037;-83
2021/06/04 02:45:34;;;;;;;22.13;16.83;;;18.00;89.70;;;;;;2073535;28;20473;-83
2021/06/04 02:46:49;;;;;;;21.77;16.02;;;18.00;89.70;;;;;;2079515;28;20080;-83
2021/06/04 02:47:54;;;;;;;20.95;15.77;;;18.00;89.80;;;;;;2078403;28;20025;-84
2021/06/04 02:48:55;;;;;;;20.77;15.98;;;18.00;89.80;;;;;;2080623;28;20017;-83
2021/06/04 02:49:56;;;;;;;20.52;15.57;;;18.00;89.90;;;;;;2078975;28;20087;-83
2021/06/04 02:51:18;;;;;;;20.98;15.68;;;17.90;90.00;;;;;;2071197;28;20022;-84
2021/06/04 02:52:25;;;;;;;20.85;16.55;;;17.90;89.90;;;;;;2076166;28;20022;-84
2021/06/04 02:53:28;;;;;;;23.20;16.80;;;18.00;90.00;;;;;;2075167;28;20476;-84
2021/06/04 02:54:32;;;;;;;21.23;15.68;;;17.90;90.00;;;;;;2080000;28;20032;-83
2021/06/04 02:55:33;;;;;;;20.38;16.02;;;17.90;90.00;;;;;;2084674;28;20543;-84
2021/06/04 02:56:40;;;;;;;20.77;16.05;;;17.90;90.00;;;;;;2069980;28;20034;-83
2021/06/04 02:57:41;;;;;;;21.05;15.93;;;17.90;90.00;;;;;;2071346;28;20029;-83
2021/06/04 02:58:45;;;;;;;21.45;16.67;;;17.90;90.00;;;;;;2074854;28;20045;-84
2021/06/04 02:59:47;;;;;;;20.08;16.05;;;17.90;90.00;;;;;;2072185;28;20032;-85
2021/06/04 03:00:48;;;;;;;23.00;16.48;;;17.90;90.00;;;;;;2069028;28;20034;-84
2021/06/04 03:02:04;;;;;;;21.90;16.85;;;17.90;90.00;;;;;;2062911;28;20106;-84
2021/06/04 03:03:06;;;;;;;21.52;16.73;;;17.90;90.00;;;;;;2080044;28;20024;-85
2021/06/04 03:04:10;;;;;;;23.60;17.92;;;17.90;90.00;;;;;;2080181;28;20033;-84
2021/06/04 03:05:32;;;;;;;19.92;15.75;;;17.90;90.00;;;;;;2080387;28;20767;-85
2021/06/04 03:06:37;;;;;;;19.67;16.02;;;17.80;90.00;;;;;;2083070;28;20029;-85
2021/06/04 03:07:40;;;;;;;21.92;15.75;;;17.90;90.00;;;;;;2076861;28;20026;-84
2021/06/04 03:08:43;;;;;;;21.00;15.80;;;17.80;90.00;;;;;;2069274;28;20026;-84
2021/06/04 03:09:44;;;;;;;21.40;16.77;;;17.80;90.00;;;;;;2076658;28;20080;-85
2021/06/04 03:10:48;;;;;;;21.17;16.38;;;17.80;90.00;;;;;;2082916;28;20013;-85
2021/06/04 03:11:52;;;;;;;23.45;16.23;;;17.80;90.10;;;;;;2081033;28;20021;-85
2021/06/04 03:12:53;;;;;;;21.65;16.05;;;17.80;90.10;;;;;;2073930;28;20161;-85
2021/06/04 03:13:54;;;;;;;24.38;17.85;;;17.80;90.10;;;;;;2074434;28;20037;-85
2021/06/04 03:14:57;;;;;;;19.33;15.85;;;17.70;90.10;;;;;;2071771;28;20137;-85
2021/06/04 03:16:06;;;;;;;20.05;15.90;;;17.70;90.10;;;;;;2063236;28;20031;-84
2021/06/04 03:17:09;;;;;;;23.05;17.15;;;17.70;90.10;;;;;;2068381;28;20030;-84
2021/06/04 03:18:13;;;;;;;21.15;16.35;;;17.70;90.40;;;;;;2075742;28;20092;-84
2021/06/04 03:19:16;;;;;;;21.33;16.27;;;17.70;90.20;;;;;;2075526;28;20022;-83
2021/06/04 03:20:34;;;;;;;21.75;16.88;;;17.70;90.20;;;;;;2077234;28;20053;-84
2021/06/04 03:21:39;;;;;;;21.25;15.90;;;17.70;90.20;;;;;;2079769;28;20071;-84
2021/06/04 03:22:42;;;;;;;21.92;16.08;;;17.70;90.20;;;;;;2065850;28;20477;-83
2021/06/04 03:23:43;;;;;;;21.73;16.33;;;17.70;90.20;;;;;;2076442;28;20053;-83
2021/06/04 03:24:45;;;;;;;21.00;16.02;;;17.70;90.20;;;;;;2079886;28;20057;-84
2021/06/04 03:25:50;;;;;;;21.95;16.95;;;17.70;90.20;;;;;;2068246;28;20046;-84
2021/06/04 03:26:51;;;;;;;19.23;15.98;;;17.70;90.20;;;;;;2072846;28;20111;-84
2021/06/04 03:27:52;;;;;;;20.58;16.08;;;17.70;90.20;;;;;;2071746;28;20486;-84
2021/06/04 03:28:56;;;;;;;21.05;16.25;;;17.70;90.20;;;;;;2072081;28;20431;-85
2021/06/04 03:29:56;;;;;;;20.05;15.68;;;17.70;90.20;;;;;;2073907;28;20508;-84
2021/06/04 03:30:58;;;;;;;20.30;16.13;;;17.70;90.20;;;;;;2058407;28;20031;-84
2021/06/04 03:32:06;;;;;;;19.45;15.57;;;17.70;90.20;;;;;;2060619;28;20411;-84
2021/06/04 03:33:08;;;;;;;21.95;15.75;;;17.70;90.20;;;;;;2075069;28;20459;-84
2021/06/04 03:34:10;;;;;;;21.08;16.20;;;17.70;90.20;;;;;;2079329;28;20033;-84
2021/06/04 03:35:11;;;;;;;19.55;15.57;;;17.70;90.20;;;;;;2072414;28;20771;-84
2021/06/04 03:36:16;;;;;;;21.55;15.93;;;17.70;90.20;;;;;;2073077;28;20037;-84
2021/06/04 03:37:20;;;;;;;22.50;16.60;;;17.70;90.20;;;;;;2073577;28;20021;-84
2021/06/04 03:38:22;;;;;;;20.50;16.20;;;17.70;90.20;;;;;;2073766;28;20026;-84
2021/06/04 03:39:27;;;;;;;21.33;15.73;;;17.70;90.20;;;;;;2081664;28;20025;-84
2021/06/04 03:40:29;;;;;;;20.35;16.10;;;17.70;90.20;;;;;;2081650;28;20104;-84
2021/06/04 03:41:33;;;;;;;20.25;16.02;;;17.70;90.20;;;;;;2081460;28;20025;-85
2021/06/04 03:42:34;;;;;;;19.08;15.55;;;17.70;90.20;;;;;;2070458;28;20113;-84
2021/06/04 03:43:35;;;;;;;20.38;16.42;;;17.70;90.20;;;;;;2073097;28;20022;-84
2021/06/04 03:44:40;;;;;;;20.60;16.33;;;17.60;90.20;;;;;;2070664;28;20022;-84
2021/06/04 03:45:43;;;;;;;21.88;16.30;;;17.70;90.20;;;;;;2076017;28;20045;-84
2021/06/04 03:46:45;;;;;;;19.88;15.45;;;17.60;90.10;;;;;;2078296;28;20472;-84
2021/06/04 03:47:46;;;;;;;20.05;15.95;;;17.60;90.10;;;;;;2076666;28;20042;-84
2021/06/04 03:48:47;;;;;;;21.40;15.93;;;17.60;90.10;;;;;;2079428;28;20028;-84
2021/06/04 03:49:48;;;;;;;22.02;16.50;;;17.60;90.10;;;;;;2073793;28;20045;-84
2021/06/04 03:50:53;;;;;;;20.55;15.40;;;17.60;90.20;;;;;;2077835;28;20029;-84
2021/06/04 03:51:58;;;;;;;19.83;15.65;;;17.60;90.20;;;;;;2072621;28;20026;-84
2021/06/04 03:52:59;;;;;;;21.23;16.20;;;17.60;90.20;;;;;;2074832;28;20040;-85
2021/06/04 03:54:01;;;;;;;21.00;16.42;;;17.60;90.20;;;;;;2077906;28;20030;-85
2021/06/04 03:55:04;;;;;;;21.20;16.23;;;17.60;90.20;;;;;;2080132;28;20041;-85
2021/06/04 03:56:07;;;;;;;20.95;16.10;;;17.60;90.20;;;;;;2073364;28;20844;-84
2021/06/04 03:57:11;;;;;;;21.08;16.23;;;17.60;90.20;;;;;;2067786;28;20030;-84
2021/06/04 03:58:14;;;;;;;20.95;16.23;;;17.60;90.20;;;;;;2071516;28;20030;-84
2021/06/04 03:59:15;;;;;;;19.48;15.18;;;17.60;90.10;;;;;;2071076;28;20053;-84
2021/06/04 04:00:21;;;;;;;21.40;16.23;;;17.50;90.10;;;;;;2064946;28;20049;-84
2021/06/04 04:01:28;;;;;;;21.00;16.30;;;17.60;90.10;;;;;;2071334;28;20467;-84
2021/06/04 04:02:29;;;;;;;20.92;15.88;;;17.60;90.10;;;;;;2079432;28;20105;-84
2021/06/04 04:03:30;;;;;;;20.55;15.57;;;17.50;90.10;;;;;;2068721;28;20027;-84
2021/06/04 04:04:31;;;;;;;20.55;16.42;;;17.60;90.10;;;;;;2072079;28;20611;-84
2021/06/04 04:05:32;;;;;;;21.35;15.77;;;17.50;90.10;;;;;;2078068;28;20079;-84
2021/06/04 04:06:34;;;;;;;21.65;16.40;;;17.60;90.10;;;;;;2075658;28;20137;-85
2021/06/04 04:07:35;;;;;;;20.20;16.17;;;17.50;90.10;;;;;;2073559;28;20076;-85
2021/06/04 04:08:36;;;;;;;21.27;16.52;;;17.50;90.20;;;;;;2072961;28;20064;-84
2021/06/04 04:09:37;;;;;;;20.55;15.82;;;17.60;90.10;;;;;;2072328;28;20400;-84
2021/06/04 04:10:37;;;;;;;20.88;16.23;;;17.60;90.10;;;;;;2077569;28;20063;-84
2021/06/04 04:11:39;;;;;;;18.73;15.43;;;17.60;90.10;;;;;;2073319;28;20034;-84
2021/06/04 04:12:40;;;;;;;19.27;15.35;;;17.60;90.10;;;;;;2064900;28;20030;-84
2021/06/04 04:13:41;;;;;;;20.10;15.80;;;17.60;90.10;;;;;;2073486;28;20042;-84
2021/06/04 04:14:42;;;;;;;19.50;15.15;;;17.60;90.10;;;;;;2070707;28;20712;-84
2021/06/04 04:15:44;;;;;;;19.63;15.45;;;17.60;90.10;;;;;;2069728;28;20480;-84
2021/06/04 04:16:44;;;;;;;19.92;15.75;;;17.60;90.10;;;;;;2081382;28;20025;-84
2021/06/04 04:17:51;;;;;;;19.80;15.38;;;17.50;90.10;;;;;;2065057;28;20101;-84
2021/06/04 04:18:51;;;;;;;19.25;15.95;;;17.60;90.10;;;;;;2071804;28;20113;-83
2021/06/04 04:19:52;;;;;;;19.67;15.50;;;17.50;90.10;;;;;;2077359;28;20459;-84
2021/06/04 04:20:56;;;;;;;19.23;15.60;;;17.50;90.10;;;;;;2074494;28;20120;-85
2021/06/04 04:21:57;;;;;;;19.83;15.48;;;17.60;90.10;;;;;;2072950;28;20406;-84
2021/06/04 04:22:59;;;;;;;19.63;15.60;;;17.60;90.10;;;;;;2073376;28;20049;-85
2021/06/04 04:24:05;;;;;;;21.42;16.10;;;17.60;90.20;;;;;;2069315;28;20034;-86
2021/06/04 04:25:08;;;;;;;20.50;15.77;;;17.60;90.40;;;;;;2077738;28;20144;-85
2021/06/04 04:26:11;;;;;;;18.60;15.00;;;17.60;90.10;;;;;;2075533;28;20033;-85
2021/06/04 04:27:11;;;;;;;20.58;15.90;;;17.60;90.10;;;;;;2086554;28;20028;-85
2021/06/04 04:28:17;;;;;;;20.23;15.85;;;17.60;90.10;;;;;;2064468;28;20022;-85
2021/06/04 04:29:18;;;;;;;19.98;15.68;;;17.70;90.10;;;;;;2065207;28;20018;-85
2021/06/04 04:30:21;;;;;;;20.17;15.52;;;17.70;90.10;;;;;;2077064;28;20048;-85
2021/06/04 04:31:25;;;;;;;19.70;14.88;;;17.70;90.00;;;;;;2075896;28;20064;-85
2021/06/04 04:32:26;;;;;;;19.10;15.23;;;17.70;90.00;;;;;;2082189;28;20020;-85
2021/06/04 04:33:28;;;;;;;20.73;15.25;;;17.80;90.00;;;;;;2067097;28;20053;-85
2021/06/04 04:34:29;;;;;;;20.52;15.73;;;17.80;90.00;;;;;;2063865;28;20116;-84
2021/06/04 04:35:34;;;;;;;19.63;15.50;;;17.80;90.00;;;;;;2073675;28;20042;-84
2021/06/04 04:36:40;;;;;;;18.98;15.02;;;17.80;90.00;;;;;;2076194;28;20025;-84
2021/06/04 04:37:41;;;;;;;18.63;14.57;;;17.80;89.90;;;;;;2085314;28;20025;-85
2021/06/04 04:38:41;;;;;;;18.73;14.75;;;17.80;89.90;;;;;;2063265;28;20686;-84
2021/06/04 04:39:45;;;;;;;21.10;14.90;;;17.80;89.90;;;;;;2055598;28;20035;-84
2021/06/04 04:40:48;;;;;;;18.15;14.95;;;17.80;89.90;;;;;;2070974;28;20037;-84
2021/06/04 04:41:50;;;;;;;18.42;14.43;;;17.80;89.90;;;;;;2072779;28;20080;-84
2021/06/04 04:42:51;;;;;;;19.10;15.20;;;17.80;89.90;;;;;;2068729;28;20018;-84
2021/06/04 04:43:53;;;;;;;19.63;14.88;;;17.80;89.90;;;;;;2064831;28;20030;-84
2021/06/04 04:44:54;;;;;;;19.13;15.10;;;17.80;89.90;;;;;;2073074;28;20148;-84
2021/06/04 04:45:55;;;;;;;18.02;14.43;;;17.90;90.00;;;;;;2079655;28;20693;-83
2021/06/04 04:46:56;;;;;;;19.92;15.30;;;17.80;89.90;;;;;;2073183;28;20078;-84
2021/06/04 04:47:58;;;;;;;19.65;15.13;;;17.80;89.90;;;;;;2058727;28;20034;-85
2021/06/04 04:48:59;;;;;;;19.15;15.13;;;17.80;90.00;;;;;;2072858;28;20169;-85
2021/06/04 04:50:00;;;;;;;20.05;15.30;;;17.90;90.00;;;;;;2080501;28;20144;-85
2021/06/04 04:51:01;;;;;;;18.05;15.20;;;17.90;90.00;;;;;;2080103;28;20029;-84
2021/06/04 04:52:11;;;;;;;18.35;15.48;;;17.90;90.00;;;;;;2096619;28;20037;-84
2021/06/04 04:53:11;;;;;;;19.73;14.82;;;17.90;89.90;;;;;;2084364;28;20052;-85
2021/06/04 04:54:13;;;;;;;17.70;14.18;;;18.00;89.80;;;;;;2072092;28;20031;-84
2021/06/04 04:55:16;;;;;;;18.70;15.05;;;18.00;89.80;;;;;;2070192;28;20023;-84
2021/06/04 04:56:16;;;;;;;19.25;15.60;;;18.00;89.80;;;;;;2082090;28;20093;-84
2021/06/04 04:57:18;;;;;;;18.90;14.98;;;18.00;89.70;;;;;;2082812;28;20021;-84
2021/06/04 04:58:20;;;;;;;19.08;14.55;;;18.10;89.60;;;;;;2076664;28;20069;-85
2021/06/04 04:59:21;;;;;;;19.20;14.15;;;18.10;89.40;;;;;;2064698;28;20018;-85
2021/06/04 05:00:26;;;;;;;19.55;15.05;;;18.20;89.50;;;;;;2057318;28;20065;-84
2021/06/04 05:01:26;;;;;;;19.67;14.90;;;18.20;89.50;;;;;;2074595;28;20109;-84
2021/06/04 05:02:27;;;;;;;18.35;14.90;;;18.20;89.40;;;;;;2088974;28;20025;-85
2021/06/04 05:03:28;;;;;;;19.77;14.57;;;18.20;89.30;;;;;;2090233;28;20028;-85
2021/06/04 05:04:29;;;;;;;19.77;14.90;;;18.30;89.20;;;;;;2079907;28;20034;-84
2021/06/04 05:05:30;;;;;;;20.85;14.48;;;18.30;89.20;;;;;;2079840;28;20425;-84
2021/06/04 05:06:31;;;;;;;19.05;15.05;;;18.30;89.20;;;;;;2080481;28;20033;-85
2021/06/04 05:07:32;;;;;;;21.77;15.32;;;18.40;89.20;;;;;;2079585;28;20100;-84
2021/06/04 05:08:33;;;;;;;18.45;15.10;;;18.40;89.10;;;;;;2071766;28;20057;-85
2021/06/04 05:09:34;;;;;;;17.38;14.38;;;18.50;88.90;;;;;;2072116;28;20091;-84
2021/06/04 05:10:35;;;;;;;18.70;14.27;;;18.50;88.80;;;;;;2064246;28;20500;-85
2021/06/04 05:11:36;;;;;;;17.38;14.45;;;18.60;88.60;;;;;;2062418;28;20035;-85
2021/06/04 05:12:37;;;;;;;19.23;14.98;;;18.70;88.50;;;;;;2072741;28;20030;-84
2021/06/04 05:13:38;;;;;;;18.10;14.73;;;18.70;88.30;;;;;;2071986;28;20026;-84
2021/06/04 05:14:39;;;;;;;19.60;15.40;;;18.80;88.20;;;;;;2076243;28;20051;-84
2021/06/04 05:15:41;;;;;;;18.88;15.35;;;18.80;88.10;;;;;;2075135;28;20062;-84
2021/06/04 05:16:42;;;;;;;19.35;14.82;;;18.80;88.00;;;;;;2077965;28;20060;-85
2021/06/04 05:17:43;;;;;;;20.50;15.55;;;18.70;88.00;;;;;;2079614;28;20045;-84
2021/06/04 05:18:43;;;;;;;19.08;15.15;;;18.70;88.10;;;;;;2067985;28;20492;-84
2021/06/04 05:19:47;;;;;;;17.88;14.73;;;18.80;88.10;;;;;;2070587;28;20060;-84
2021/06/04 05:20:48;;;;;;;19.65;14.80;;;18.80;88.10;;;;;;2074822;28;20026;-84
2021/06/04 05:21:49;;;;;;;18.50;14.55;;;18.80;88.10;;;;;;2084489;28;20171;-83
2021/06/04 05:22:51;;;;;;;17.90;14.15;;;18.90;88.00;;;;;;2082665;28;20444;-84
2021/06/04 05:23:53;;;;;;;15.93;13.63;;;19.00;87.90;;;;;;2083055;28;20030;-84
2021/06/04 05:24:54;;;;;;;16.45;13.63;;;19.00;87.80;;;;;;2084661;28;20029;-83
2021/06/04 05:25:56;;;;;;;16.58;13.63;;;19.10;87.50;;;;;;2087951;28;20061;-84
2021/06/04 05:26:56;;;;;;;17.75;14.10;;;19.20;87.30;;;;;;2079129;28;20030;-83
2021/06/04 05:27:58;;;;;;;16.55;13.38;;;19.30;87.10;;;;;;2068550;28;20037;-83
2021/06/04 05:28:58;;;;;;;17.92;13.32;;;19.40;86.90;;;;;;2077880;28;20112;-83
2021/06/04 05:29:59;;;;;;;15.95;12.65;;;19.50;86.80;;;;;;2087156;28;20026;-84
2021/06/04 05:31:05;;;;;;;16.35;13.20;;;19.50;86.50;;;;;;2075247;28;20030;-84
2021/06/04 05:32:07;;;;;;;17.38;13.40;;;19.60;86.30;;;;;;2076842;28;20021;-84
2021/06/04 05:33:10;;;;;;;15.68;12.85;;;19.70;86.10;;;;;;2072200;28;20500;-83
2021/06/04 05:34:11;;;;;;;15.95;12.93;;;19.80;85.90;;;;;;2078134;28;20208;-83